createdAt,value
2018-10-01T00:01:52.601Z,73.94
2018-10-01T00:04:21.578Z,74.14
2018-10-01T00:06:50.478Z,74.33
2018-10-01T00:09:19.688Z,74.18
2018-10-01T00:11:49.237Z,73.53
2018-10-01T00:14:18.323Z,73.98
2018-10-01T00:16:47.310Z,74.83
2018-10-01T00:19:22.046Z,74.57
2018-10-01T00:21:56.385Z,75.27
2018-10-01T00:24:25.654Z,74.61
2018-10-01T00:26:54.882Z,74.91
2018-10-01T00:29:23.850Z,75.56
2018-10-01T00:31:52.825Z,75.25
2018-10-01T00:34:21.799Z,75.73
2018-10-01T00:36:51.232Z,75.45
2018-10-01T00:39:20.287Z,75.26
2018-10-01T00:41:49.351Z,75.49
2018-10-01T00:44:18.478Z,76.09
2018-10-01T00:46:47.437Z,75.22
2018-10-01T00:49:16.410Z,75.29
2018-10-01T00:51:45.322Z,75.75
2018-10-01T00:54:14.281Z,75.81
2018-10-01T00:56:43.233Z,75.82
2018-10-01T00:59:12.196Z,74.90
2018-10-01T01:01:41.172Z,75.40
2018-10-01T01:06:45.293Z,75.78
2018-10-01T01:09:14.303Z,76.13
2018-10-01T01:11:43.340Z,76.64
2018-10-01T01:14:12.273Z,75.93
2018-10-01T01:16:41.223Z,75.11
2018-10-01T01:19:10.152Z,75.78
2018-10-01T01:21:39.170Z,76.39
2018-10-01T01:24:08.326Z,75.91
2018-10-01T01:26:37.386Z,76.16
2018-10-01T01:29:06.342Z,76.46
2018-10-01T01:31:35.294Z,76.78
2018-10-01T01:34:04.327Z,77.32
2018-10-01T01:36:33.304Z,76.54
2018-10-01T01:39:02.291Z,77.28
2018-10-01T01:41:31.281Z,77.08
2018-10-01T01:44:00.238Z,76.50
2018-10-01T01:46:29.304Z,76.66
2018-10-01T01:48:58.381Z,76.93
2018-10-01T01:51:27.503Z,76.88
2018-10-01T01:53:56.524Z,77.43
2018-10-01T01:56:25.523Z,76.95
2018-10-01T01:58:54.555Z,77.37
2018-10-01T02:01:24.049Z,77.12
2018-10-01T02:03:52.988Z,77.51
2018-10-01T02:06:21.961Z,77.28
2018-10-01T02:08:50.940Z,77.65
2018-10-01T02:11:19.840Z,78.20
2018-10-01T02:13:48.775Z,78.10
2018-10-01T02:16:17.841Z,77.34
2018-10-01T02:18:46.923Z,77.76
2018-10-01T02:21:15.854Z,78.49
2018-10-01T02:23:44.843Z,78.08
2018-10-01T02:26:13.843Z,77.82
2018-10-01T02:28:42.930Z,78.53
2018-10-01T02:31:12.279Z,78.58
2018-10-01T02:33:41.324Z,78.38
2018-10-01T02:36:10.320Z,78.75
2018-10-01T02:38:39.316Z,80.07
2018-10-01T02:41:08.454Z,79.25
2018-10-01T02:43:37.727Z,78.67
2018-10-01T02:46:06.652Z,79.43
2018-10-01T02:48:35.583Z,80.10
2018-10-01T02:51:04.565Z,80.67
2018-10-01T02:53:38.919Z,80.75
2018-10-01T02:56:08.130Z,80.63
2018-10-01T02:58:37.054Z,80.84
2018-10-01T03:01:06.074Z,80.62
2018-10-01T03:03:35.073Z,80.40
2018-10-01T03:06:04.088Z,80.02
2018-10-01T03:08:33.107Z,80.97
2018-10-01T03:11:02.022Z,82.17
2018-10-01T03:13:30.966Z,81.83
2018-10-01T03:15:59.917Z,81.92
2018-10-01T03:18:28.858Z,81.50
2018-10-01T03:20:57.795Z,81.30
2018-10-01T03:23:26.781Z,81.28
2018-10-01T03:25:55.837Z,82.25
2018-10-01T03:28:24.913Z,81.82
2018-10-01T03:30:53.854Z,81.80
2018-10-01T03:33:22.808Z,82.58
2018-10-01T03:35:51.746Z,82.13
2018-10-01T03:38:20.711Z,82.50
2018-10-01T03:40:49.650Z,82.15
2018-10-01T03:43:18.608Z,82.51
2018-10-01T03:45:47.574Z,81.63
2018-10-01T03:48:16.531Z,82.52
2018-10-01T03:50:45.535Z,83.53
2018-10-01T03:53:14.512Z,83.09
2018-10-01T03:55:43.434Z,83.47
2018-10-01T03:58:12.413Z,84.61
2018-10-01T04:00:41.480Z,84.72
2018-10-01T04:03:10.488Z,85.72
2018-10-01T04:05:39.353Z,85.51
2018-10-01T04:08:08.433Z,85.43
2018-10-01T04:10:37.385Z,87.45
2018-10-01T04:13:06.307Z,87.61
2018-10-01T04:15:35.290Z,88.40
2018-10-01T04:18:04.186Z,89.29
2018-10-01T04:20:33.168Z,89.80
2018-10-01T04:23:02.167Z,89.84
2018-10-01T04:25:31.080Z,90.70
2018-10-01T04:28:00.034Z,90.54
2018-10-01T04:30:29.015Z,90.10
2018-10-01T04:32:57.955Z,89.62
2018-10-01T04:35:26.904Z,88.83
2018-10-01T04:37:55.841Z,89.38
2018-10-01T04:40:24.765Z,89.03
2018-10-01T04:42:53.737Z,88.56
2018-10-01T04:45:22.827Z,88.20
2018-10-01T04:47:51.750Z,88.01
2018-10-01T04:50:20.693Z,86.97
2018-10-01T04:52:49.687Z,87.32
2018-10-01T04:55:18.600Z,87.52
2018-10-01T04:57:47.604Z,87.59
2018-10-01T05:00:16.518Z,86.13
2018-10-01T05:02:45.491Z,86.67
2018-10-01T05:05:14.460Z,86.14
2018-10-01T05:07:43.425Z,86.05
2018-10-01T05:10:12.322Z,85.91
2018-10-01T05:12:41.304Z,86.19
2018-10-01T05:15:10.236Z,85.73
2018-10-01T05:17:39.170Z,86.75
2018-10-01T05:20:08.170Z,85.94
2018-10-01T05:22:37.238Z,85.87
2018-10-01T05:25:06.176Z,85.60
2018-10-01T05:27:35.103Z,86.56
2018-10-01T05:30:04.107Z,86.98
2018-10-01T05:32:33.051Z,87.13
2018-10-01T05:35:02.041Z,87.24
2018-10-01T05:37:30.970Z,88.19
2018-10-01T05:39:59.974Z,89.94
2018-10-01T05:42:28.898Z,89.96
2018-10-01T05:44:57.845Z,90.85
2018-10-01T05:47:26.780Z,90.20
2018-10-01T05:49:55.715Z,90.30
2018-10-01T05:52:24.715Z,89.71
2018-10-01T05:54:53.612Z,88.66
2018-10-01T05:57:22.579Z,89.29
2018-10-01T05:59:51.531Z,88.51
2018-10-01T06:02:20.681Z,89.38
2018-10-01T06:04:49.674Z,89.05
2018-10-01T06:07:18.568Z,88.68
2018-10-01T06:09:47.502Z,89.25
2018-10-01T06:12:16.429Z,90.10
2018-10-01T06:14:45.361Z,89.48
2018-10-01T06:17:14.323Z,90.06
2018-10-01T06:19:43.245Z,89.89
2018-10-01T06:22:12.192Z,90.27
2018-10-01T06:24:41.115Z,90.91
2018-10-01T06:27:10.046Z,90.37
2018-10-01T06:29:38.998Z,89.42
2018-10-01T06:32:07.971Z,89.60
2018-10-01T06:34:37.041Z,90.04
2018-10-01T06:37:05.941Z,90.60
2018-10-01T06:39:34.872Z,89.80
2018-10-01T06:42:03.951Z,89.41
2018-10-01T06:44:32.838Z,90.56
2018-10-01T06:47:01.754Z,90.14
2018-10-01T06:49:30.830Z,90.67
2018-10-01T06:51:59.745Z,90.45
2018-10-01T06:54:28.676Z,90.49
2018-10-01T06:56:57.642Z,90.83
2018-10-01T06:59:26.613Z,90.48
2018-10-01T07:01:55.692Z,90.31
2018-10-01T07:04:24.620Z,90.99
2018-10-01T07:06:53.561Z,90.16
2018-10-01T07:09:22.481Z,90.69
2018-10-01T07:11:51.421Z,89.92
2018-10-01T07:14:21.211Z,90.75
2018-10-01T07:16:50.194Z,90.41
2018-10-01T07:19:19.105Z,90.25
2018-10-01T07:21:48.083Z,91.21
2018-10-01T07:24:17.002Z,89.94
2018-10-01T07:26:45.942Z,91.18
2018-10-01T07:29:14.882Z,91.42
2018-10-01T07:31:43.843Z,90.71
2018-10-01T07:34:12.778Z,90.14
2018-10-01T07:36:41.867Z,89.83
2018-10-01T07:39:10.787Z,89.98
2018-10-01T07:41:48.247Z,90.00
2018-10-01T07:44:17.202Z,89.60
2018-10-01T07:46:46.114Z,88.66
2018-10-01T07:49:15.103Z,88.50
2018-10-01T07:51:44.075Z,88.96
2018-10-01T07:54:12.983Z,88.25
2018-10-01T07:56:41.914Z,87.70
2018-10-01T07:59:14.896Z,87.00
2018-10-01T08:01:43.898Z,86.60
2018-10-01T08:04:12.820Z,85.99
2018-10-01T08:06:41.731Z,86.11
2018-10-01T08:09:11.418Z,86.42
2018-10-01T08:11:40.405Z,86.26
2018-10-01T08:14:09.445Z,86.58
2018-10-01T08:16:38.385Z,85.68
2018-10-01T08:19:07.329Z,86.22
2018-10-01T08:21:36.262Z,85.71
2018-10-01T08:24:05.234Z,85.50
2018-10-01T08:26:34.235Z,85.08
2018-10-01T08:29:03.103Z,85.63
2018-10-01T08:31:32.526Z,86.07
2018-10-01T08:34:01.493Z,85.95
2018-10-01T08:36:30.456Z,85.20
2018-10-01T08:38:59.437Z,85.33
2018-10-01T08:41:28.402Z,85.01
2018-10-01T08:43:57.378Z,84.79
2018-10-01T08:46:26.412Z,85.08
2018-10-01T08:48:59.734Z,84.43
2018-10-01T08:52:08.007Z,84.91
2018-10-01T08:54:41.509Z,83.87
2018-10-01T08:57:10.460Z,83.94
2018-10-01T08:59:39.419Z,83.93
2018-10-01T09:02:08.398Z,82.97
2018-10-01T09:04:37.325Z,82.98
2018-10-01T09:07:06.257Z,82.38
2018-10-01T09:09:35.263Z,82.73
2018-10-01T09:12:04.196Z,81.52
2018-10-01T09:14:33.223Z,80.93
2018-10-01T09:17:02.151Z,82.24
2018-10-01T09:19:31.238Z,81.21
2018-10-01T09:22:00.152Z,82.45
2018-10-01T09:24:29.074Z,82.31
2018-10-01T09:26:58.030Z,81.36
2018-10-01T09:29:27.021Z,81.67
2018-10-01T09:31:55.918Z,81.66
2018-10-01T09:34:25.238Z,81.64
2018-10-01T09:36:54.173Z,82.17
2018-10-01T09:39:23.169Z,82.33
2018-10-01T09:41:52.270Z,82.10
2018-10-01T09:44:21.211Z,80.81
2018-10-01T09:46:50.132Z,81.11
2018-10-01T09:49:19.653Z,79.88
2018-10-01T09:51:49.817Z,79.03
2018-10-01T09:54:18.791Z,79.24
2018-10-01T09:56:47.729Z,78.19
2018-10-01T09:59:16.702Z,77.21
2018-10-01T10:01:45.692Z,77.18
2018-10-01T10:04:14.573Z,76.46
2018-10-01T10:06:43.566Z,76.93
2018-10-01T10:09:12.485Z,77.10
2018-10-01T10:11:41.591Z,83.06
2018-10-01T10:14:10.598Z,86.44
2018-10-01T10:16:39.588Z,85.53
2018-10-01T10:19:08.457Z,85.88
2018-10-01T10:21:37.538Z,87.02
2018-10-01T10:24:06.561Z,86.36
2018-10-01T10:26:35.506Z,86.45
2018-10-01T10:29:04.475Z,86.27
2018-10-01T10:31:33.427Z,85.69
2018-10-01T10:34:02.424Z,85.12
2018-10-01T10:36:31.327Z,86.24
2018-10-01T10:39:00.308Z,85.35
2018-10-01T10:41:29.192Z,84.93
2018-10-01T10:43:58.099Z,86.06
2018-10-01T10:46:27.178Z,85.96
2018-10-01T10:48:56.270Z,86.21
2018-10-01T10:51:25.260Z,85.84
2018-10-01T10:53:54.424Z,85.90
2018-10-01T10:56:23.351Z,85.01
2018-10-01T10:58:52.290Z,84.39
2018-10-01T11:01:21.227Z,84.76
2018-10-01T11:03:50.206Z,84.31
2018-10-01T11:06:19.117Z,83.13
2018-10-01T11:08:48.165Z,82.69
2018-10-01T11:11:17.247Z,84.02
2018-10-01T11:13:46.218Z,83.48
2018-10-01T11:16:15.107Z,84.36
2018-10-01T11:18:44.269Z,84.48
2018-10-01T11:21:13.057Z,84.65
2018-10-01T11:23:41.974Z,84.07
2018-10-01T11:26:11.031Z,83.09
2018-10-01T11:28:39.999Z,83.50
2018-10-01T11:31:08.940Z,84.01
2018-10-01T11:33:37.974Z,85.81
2018-10-01T11:36:06.815Z,84.49
2018-10-01T11:38:35.736Z,84.13
2018-10-01T11:41:04.765Z,84.00
2018-10-01T11:43:33.807Z,84.80
2018-10-01T11:46:02.700Z,84.68
2018-10-01T11:48:31.650Z,84.36
2018-10-01T11:51:00.647Z,84.72
2018-10-01T11:53:29.514Z,84.22
2018-10-01T11:55:58.436Z,85.08
2018-10-01T11:58:27.397Z,85.44
2018-10-01T12:00:56.324Z,85.93
2018-10-01T12:03:25.359Z,88.01
2018-10-01T12:05:54.171Z,88.46
2018-10-01T12:08:23.141Z,88.81
2018-10-01T12:10:52.071Z,88.64
2018-10-01T12:13:21.010Z,88.01
2018-10-01T12:15:50.115Z,88.68
2018-10-01T12:18:18.959Z,88.78
2018-10-01T12:20:47.934Z,89.34
2018-10-01T12:23:16.898Z,87.26
2018-10-01T12:25:45.830Z,89.33
2018-10-01T12:28:14.812Z,87.80
2018-10-01T12:30:43.957Z,89.08
2018-10-01T12:33:12.920Z,88.04
2018-10-01T12:35:41.837Z,89.20
2018-10-01T12:38:10.756Z,88.42
2018-10-01T12:40:39.781Z,88.02
2018-10-01T12:43:08.734Z,87.95
2018-10-01T12:45:37.752Z,87.61
2018-10-01T12:48:06.707Z,88.72
2018-10-01T12:50:35.869Z,87.89
2018-10-01T12:53:04.586Z,86.78
2018-10-01T12:55:33.557Z,86.99
2018-10-01T12:58:02.502Z,87.34
2018-10-01T13:00:31.453Z,85.92
2018-10-01T13:03:00.545Z,85.96
2018-10-01T13:05:29.453Z,85.95
2018-10-01T13:08:02.322Z,86.43
2018-10-01T13:10:31.287Z,86.46
2018-10-01T13:13:00.282Z,86.03
2018-10-01T13:15:29.198Z,85.82
2018-10-01T13:17:58.184Z,86.36
2018-10-01T13:20:27.061Z,86.64
2018-10-01T13:22:56.131Z,85.60
2018-10-01T13:25:25.073Z,85.62
2018-10-01T13:27:53.998Z,85.48
2018-10-01T13:30:23.738Z,84.07
2018-10-01T13:32:52.521Z,86.21
2018-10-01T13:35:21.493Z,84.69
2018-10-01T13:37:50.492Z,85.18
2018-10-01T13:40:19.395Z,83.96
2018-10-01T13:42:48.399Z,84.18
2018-10-01T13:45:17.293Z,84.29
2018-10-01T13:47:46.254Z,82.92
2018-10-01T13:50:15.227Z,83.74
2018-10-01T13:52:44.178Z,83.08
2018-10-01T13:55:13.092Z,81.85
2018-10-01T13:57:42.027Z,82.25
2018-10-01T14:00:10.941Z,81.52
2018-10-01T14:02:39.883Z,80.72
2018-10-01T14:05:08.847Z,81.02
2018-10-01T14:07:37.885Z,80.04
2018-10-01T14:10:06.714Z,80.48
2018-10-01T14:12:35.815Z,78.72
2018-10-01T14:15:04.987Z,79.98
2018-10-01T14:17:33.988Z,81.10
2018-10-01T14:20:03.383Z,79.70
2018-10-01T14:22:32.050Z,79.21
2018-10-01T14:25:01.089Z,79.14
2018-10-01T14:27:29.947Z,77.95
2018-10-01T14:29:58.934Z,79.68
2018-10-01T14:32:28.028Z,77.64
2018-10-01T14:34:57.035Z,78.65
2018-10-01T14:37:26.026Z,77.79
2018-10-01T14:39:55.062Z,77.31
2018-10-01T14:42:24.044Z,77.91
2018-10-01T14:44:52.954Z,76.82
2018-10-01T14:47:21.918Z,77.39
2018-10-01T14:49:50.907Z,77.14
2018-10-01T14:52:19.875Z,76.27
2018-10-01T14:54:48.976Z,76.18
2018-10-01T14:57:18.338Z,75.82
2018-10-01T14:59:47.342Z,74.05
2018-10-01T15:02:16.382Z,73.62
2018-10-01T15:04:45.303Z,74.54
2018-10-01T15:07:14.225Z,74.72
2018-10-01T15:09:43.264Z,74.31
2018-10-01T15:12:12.330Z,74.53
2018-10-01T15:14:41.180Z,74.66
2018-10-01T15:17:10.172Z,74.69
2018-10-01T15:19:39.110Z,73.96
2018-10-01T15:22:08.030Z,73.68
2018-10-01T15:24:37.129Z,72.41
2018-10-01T15:27:06.061Z,74.25
2018-10-01T15:29:34.966Z,74.34
2018-10-01T15:32:03.936Z,73.87
2018-10-01T15:34:32.876Z,74.45
2018-10-01T15:37:01.966Z,73.09
2018-10-01T15:39:31.067Z,73.66
2018-10-01T15:42:00.025Z,72.37
2018-10-01T15:44:28.975Z,71.55
2018-10-01T15:46:57.987Z,72.33
2018-10-01T15:49:26.893Z,72.39
2018-10-01T15:51:55.885Z,72.11
2018-10-01T15:54:24.787Z,72.62
2018-10-01T15:56:53.733Z,73.33
2018-10-01T15:59:22.667Z,73.40
2018-10-01T16:01:51.636Z,73.81
2018-10-01T16:04:20.554Z,74.00
2018-10-01T16:06:49.497Z,74.14
2018-10-01T16:09:18.508Z,73.42
2018-10-01T16:11:47.577Z,72.90
2018-10-01T16:14:16.542Z,72.71
2018-10-01T16:16:45.996Z,73.72
2018-10-01T16:19:15.438Z,73.66
2018-10-01T16:21:46.259Z,74.30
2018-10-01T16:24:15.520Z,75.21
2018-10-01T16:26:44.538Z,75.42
2018-10-01T16:29:13.507Z,74.33
2018-10-01T16:31:42.407Z,75.17
2018-10-01T16:34:11.355Z,75.53
2018-10-01T16:36:40.312Z,75.91
2018-10-01T16:39:10.903Z,76.64
2018-10-01T16:41:39.863Z,76.07
2018-10-01T16:44:08.908Z,76.14
2018-10-01T16:46:37.858Z,76.01
2018-10-01T16:49:06.890Z,76.99
2018-10-01T16:51:35.820Z,76.27
2018-10-01T16:54:04.815Z,76.46
2018-10-01T16:56:33.772Z,77.42
2018-10-01T16:59:07.340Z,77.54
2018-10-01T17:01:41.661Z,77.29
2018-10-01T17:04:17.739Z,77.75
2018-10-01T17:06:53.825Z,78.71
2018-10-01T17:09:22.819Z,77.87
2018-10-01T17:11:51.806Z,77.73
2018-10-01T17:14:20.797Z,78.10
2018-10-01T17:16:49.717Z,78.13
2018-10-01T17:19:18.840Z,79.23
2018-10-01T17:21:47.861Z,78.34
2018-10-01T17:24:16.848Z,78.72
2018-10-01T17:26:45.797Z,79.57
2018-10-01T17:29:14.787Z,79.99
2018-10-01T17:31:43.764Z,79.28
2018-10-01T17:34:12.743Z,79.17
2018-10-01T17:36:41.717Z,79.63
2018-10-01T17:39:11.141Z,80.36
2018-10-01T17:41:40.856Z,79.63
2018-10-01T17:44:09.878Z,79.79
2018-10-01T17:46:38.839Z,80.25
2018-10-01T17:49:07.834Z,80.31
2018-10-01T17:51:36.808Z,79.43
2018-10-01T17:54:05.824Z,80.07
2018-10-01T17:56:34.762Z,79.76
2018-10-01T17:59:03.695Z,79.93
2018-10-01T18:01:32.664Z,78.88
2018-10-01T18:04:02.146Z,79.08
2018-10-01T18:06:31.125Z,79.39
2018-10-01T18:09:00.164Z,78.66
2018-10-01T18:11:29.348Z,79.55
2018-10-01T18:13:58.293Z,78.94
2018-10-01T18:16:27.281Z,79.19
2018-10-01T18:18:56.217Z,80.05
2018-10-01T18:21:25.131Z,79.83
2018-10-01T18:23:54.145Z,80.97
2018-10-01T18:26:23.105Z,79.90
2018-10-01T18:28:52.103Z,80.50
2018-10-01T18:31:21.062Z,81.07
2018-10-01T18:33:50.020Z,82.00
2018-10-01T18:36:19.096Z,81.53
2018-10-01T18:38:48.027Z,82.64
2018-10-01T18:41:16.979Z,81.62
2018-10-01T18:43:46.046Z,82.76
2018-10-01T18:46:14.920Z,82.76
2018-10-01T18:48:43.886Z,82.20
2018-10-01T18:51:12.821Z,83.31
2018-10-01T18:53:41.850Z,83.75
2018-10-01T18:56:10.814Z,83.93
2018-10-01T18:58:39.912Z,83.77
2018-10-01T19:01:08.938Z,83.69
2018-10-01T19:03:37.970Z,83.35
2018-10-01T19:06:07.033Z,83.18
2018-10-01T19:08:35.973Z,83.07
2018-10-01T19:11:04.964Z,83.32
2018-10-01T19:13:33.972Z,83.57
2018-10-01T19:16:02.971Z,83.80
2018-10-01T19:18:31.906Z,83.65
2018-10-01T19:21:00.925Z,83.69
2018-10-01T19:23:29.811Z,83.20
2018-10-01T19:25:58.836Z,83.96
2018-10-01T19:28:27.781Z,83.78
2018-10-01T19:30:56.751Z,83.58
2018-10-01T19:33:25.827Z,83.91
2018-10-01T19:35:54.745Z,84.16
2018-10-01T19:38:23.705Z,83.67
2018-10-01T19:40:52.669Z,84.41
2018-10-01T19:43:21.673Z,83.25
2018-10-01T19:45:50.727Z,83.22
2018-10-01T19:48:19.659Z,82.77
2018-10-01T19:50:48.675Z,83.31
2018-10-01T19:53:17.687Z,82.93
2018-10-01T19:55:46.632Z,83.10
2018-10-01T19:58:15.606Z,83.41
2018-10-01T20:00:44.591Z,83.23
2018-10-01T20:03:13.664Z,83.64
2018-10-01T20:05:42.621Z,83.49
2018-10-01T20:08:11.588Z,83.68
2018-10-01T20:10:40.577Z,83.74
2018-10-01T20:13:09.470Z,83.83
2018-10-01T20:15:38.457Z,83.40
2018-10-01T20:18:07.394Z,83.63
2018-10-01T20:20:36.330Z,83.78
2018-10-01T20:23:05.282Z,84.12
2018-10-01T20:25:34.308Z,84.40
2018-10-01T20:28:03.931Z,83.81
2018-10-01T20:30:32.808Z,83.81
2018-10-01T20:33:01.838Z,83.81
2018-10-01T20:35:30.967Z,84.53
2018-10-01T20:38:00.154Z,84.57
2018-10-01T20:40:29.028Z,84.99
2018-10-01T20:42:57.982Z,84.76
2018-10-01T20:45:26.927Z,85.17
2018-10-01T20:47:55.902Z,85.12
2018-10-01T20:50:24.938Z,85.47
2018-10-01T20:52:53.948Z,84.39
2018-10-01T20:55:22.777Z,84.57
2018-10-01T20:57:51.727Z,84.56
2018-10-01T21:00:20.675Z,85.14
2018-10-01T21:02:49.626Z,84.79
2018-10-01T21:05:18.581Z,85.35
2018-10-01T21:07:47.560Z,85.17
2018-10-01T21:10:16.509Z,85.28
2018-10-01T21:12:45.463Z,85.57
2018-10-01T21:15:14.419Z,84.75
2018-10-01T21:17:43.490Z,85.01
2018-10-01T21:20:12.460Z,85.04
2018-10-01T21:22:41.517Z,84.90
2018-10-01T21:25:10.452Z,84.85
2018-10-01T21:27:39.393Z,84.36
2018-10-01T21:30:08.349Z,84.78
2018-10-01T21:32:37.269Z,86.08
2018-10-01T21:35:06.199Z,85.89
2018-10-01T21:37:35.277Z,85.06
2018-10-01T21:40:09.507Z,85.29
2018-10-01T21:42:38.429Z,86.09
2018-10-01T21:45:08.071Z,86.21
2018-10-01T21:47:37.026Z,85.12
2018-10-01T21:50:05.974Z,85.86
2018-10-01T21:52:34.937Z,86.63
2018-10-01T21:55:03.936Z,86.03
2018-10-01T21:57:32.912Z,86.46
2018-10-01T22:00:01.868Z,86.26
2018-10-01T22:02:30.822Z,86.39
2018-10-01T22:04:59.883Z,87.36
2018-10-01T22:07:28.966Z,86.36
2018-10-01T22:10:04.434Z,85.88
2018-10-01T22:12:33.531Z,86.70
2018-10-01T22:15:02.466Z,86.34
2018-10-01T22:17:31.444Z,86.87
2018-10-01T22:20:00.374Z,86.78
2018-10-01T22:22:29.297Z,87.28
2018-10-01T22:24:58.218Z,87.27
2018-10-01T22:27:27.820Z,86.63
2018-10-01T22:29:57.473Z,86.91
2018-10-01T22:32:27.447Z,87.58
2018-10-01T22:34:57.324Z,87.69
2018-10-01T22:37:26.857Z,87.60
2018-10-01T22:39:56.110Z,86.62
2018-10-01T22:42:25.070Z,87.54
2018-10-01T22:44:53.978Z,87.09
2018-10-01T22:47:23.676Z,87.52
2018-10-01T22:49:52.609Z,87.50
2018-10-01T22:52:21.649Z,87.32
2018-10-01T22:54:50.627Z,87.17
2018-10-01T22:57:19.555Z,86.62
2018-10-01T22:59:49.167Z,87.23
2018-10-01T23:02:18.091Z,86.79
2018-10-01T23:04:47.114Z,86.60
2018-10-01T23:07:16.084Z,87.80
2018-10-01T23:09:45.241Z,87.70
2018-10-01T23:12:14.168Z,88.32
2018-10-01T23:14:43.252Z,88.03
2018-10-01T23:17:12.130Z,87.87
2018-10-01T23:19:41.055Z,87.99
2018-10-01T23:22:09.958Z,88.28
2018-10-01T23:24:38.899Z,88.06
2018-10-01T23:27:07.770Z,88.16
2018-10-01T23:29:36.708Z,87.49
2018-10-01T23:32:05.720Z,88.16
2018-10-01T23:34:34.623Z,88.21
2018-10-01T23:37:03.501Z,88.14
2018-10-01T23:39:32.491Z,87.16
2018-10-01T23:42:01.362Z,87.80
2018-10-01T23:44:30.268Z,87.82
2018-10-01T23:46:59.181Z,87.43
2018-10-01T23:49:28.108Z,87.90
2018-10-01T23:51:57.011Z,88.03
2018-10-01T23:54:26.149Z,87.55
2018-10-01T23:56:55.087Z,87.36
2018-10-01T23:59:24.003Z,87.54
